createdAt,value
2022-09-07T00:00:48.106Z,23.80
2022-09-07T00:03:15.463Z,23.80
2022-09-07T00:05:47.745Z,23.80
2022-09-07T00:08:16.386Z,23.70
2022-09-07T00:10:52.883Z,23.70
2022-09-07T00:13:21.129Z,23.70
2022-09-07T00:15:48.377Z,23.70
2022-09-07T00:18:15.462Z,23.70
2022-09-07T00:20:42.391Z,23.70
2022-09-07T00:23:09.428Z,23.70
2022-09-07T00:25:39.139Z,23.60
2022-09-07T00:28:08.204Z,23.60
2022-09-07T00:30:40.377Z,23.60
2022-09-07T00:33:07.412Z,23.60
2022-09-07T00:35:38.992Z,23.60
2022-09-07T00:38:05.850Z,23.60
2022-09-07T00:40:32.763Z,23.60
2022-09-07T00:42:59.660Z,23.60
2022-09-07T00:45:26.696Z,23.60
2022-09-07T00:47:57.182Z,23.60
2022-09-07T00:50:40.842Z,23.60
2022-09-07T00:53:17.757Z,23.60
2022-09-07T00:55:47.164Z,23.60
2022-09-07T00:58:14.405Z,23.60
2022-09-07T01:00:43.430Z,23.60
2022-09-07T01:03:12.051Z,23.60
2022-09-07T01:06:14.399Z,23.60
2022-09-07T01:08:43.634Z,23.60
2022-09-07T01:11:11.878Z,23.60
2022-09-07T01:13:41.996Z,23.60
2022-09-07T01:16:29.493Z,23.60
2022-09-07T01:19:28.975Z,23.60
2022-09-07T01:22:22.924Z,23.60
2022-09-07T01:25:05.918Z,23.60
2022-09-07T01:28:09.172Z,23.60
2022-09-07T01:30:39.240Z,23.60
2022-09-07T01:33:17.585Z,23.60
2022-09-07T01:35:50.361Z,23.60
2022-09-07T01:38:27.447Z,23.60
2022-09-07T01:41:13.918Z,23.70
2022-09-07T01:44:01.093Z,23.70
2022-09-07T01:46:52.658Z,23.70
2022-09-07T01:49:25.070Z,23.70
2022-09-07T01:51:58.344Z,23.70
2022-09-07T01:54:32.929Z,23.70
2022-09-07T01:57:09.292Z,23.70
2022-09-07T01:59:41.920Z,23.70
2022-09-07T02:02:18.994Z,23.70
2022-09-07T02:05:07.995Z,23.80
2022-09-07T02:07:45.332Z,23.80
2022-09-07T02:10:46.681Z,23.70
2022-09-07T02:13:19.854Z,23.80
2022-09-07T02:16:05.028Z,23.80
2022-09-07T02:18:41.406Z,23.80
2022-09-07T02:21:10.340Z,23.80
2022-09-07T02:23:50.721Z,23.80
2022-09-07T02:26:21.541Z,23.80
2022-09-07T02:28:48.856Z,23.80
2022-09-07T02:31:16.059Z,23.80
2022-09-07T02:33:43.503Z,23.80
2022-09-07T02:36:15.061Z,23.80
2022-09-07T02:38:42.100Z,23.90
2022-09-07T02:41:34.091Z,23.90
2022-09-07T02:44:04.212Z,23.90
2022-09-07T02:46:44.955Z,23.80
2022-09-07T02:49:27.282Z,23.80
2022-09-07T02:52:32.219Z,23.80
2022-09-07T02:55:11.195Z,23.80
2022-09-07T02:58:04.098Z,23.80
2022-09-07T03:00:39.217Z,23.90
2022-09-07T03:03:20.810Z,23.80
2022-09-07T03:05:59.935Z,23.80
2022-09-07T03:08:32.055Z,23.80
2022-09-07T03:10:59.935Z,23.80
2022-09-07T03:13:29.080Z,23.80
2022-09-07T03:15:57.298Z,23.80
2022-09-07T03:18:25.888Z,23.80
2022-09-07T03:20:53.596Z,23.80
2022-09-07T03:23:20.754Z,23.90
2022-09-07T03:25:49.099Z,23.80
2022-09-07T03:28:16.451Z,23.80
2022-09-07T03:30:47.168Z,23.80
2022-09-07T03:33:17.571Z,23.80
2022-09-07T03:35:46.075Z,23.80
2022-09-07T03:38:13.159Z,23.80
2022-09-07T03:40:40.231Z,23.80
2022-09-07T03:43:07.153Z,23.80
2022-09-07T03:45:34.123Z,23.80
2022-09-07T03:48:00.987Z,23.80
2022-09-07T03:50:29.180Z,23.80
2022-09-07T03:52:56.150Z,23.80
2022-09-07T03:55:23.038Z,23.80
2022-09-07T03:57:49.971Z,23.80
2022-09-07T04:00:17.055Z,23.80
2022-09-07T04:02:44.041Z,23.80
2022-09-07T04:05:11.648Z,23.80
2022-09-07T04:07:38.825Z,23.80
2022-09-07T04:10:06.032Z,23.80
2022-09-07T04:12:32.959Z,23.80
2022-09-07T04:14:59.835Z,23.80
2022-09-07T04:17:26.752Z,23.80
2022-09-07T04:19:53.693Z,23.80
2022-09-07T04:22:20.617Z,23.80
2022-09-07T04:24:47.535Z,23.80
2022-09-07T04:27:14.518Z,23.80
2022-09-07T04:29:41.393Z,23.80
2022-09-07T04:32:10.527Z,23.80
2022-09-07T04:34:40.543Z,23.80
2022-09-07T04:37:07.465Z,23.80
2022-09-07T04:39:34.392Z,23.80
2022-09-07T04:42:01.370Z,23.80
2022-09-07T04:44:28.399Z,23.80
2022-09-07T04:46:55.292Z,23.80
2022-09-07T04:49:22.589Z,23.80
2022-09-07T04:51:49.606Z,23.80
2022-09-07T04:54:16.531Z,23.80
2022-09-07T04:56:43.468Z,23.80
2022-09-07T04:59:10.439Z,23.80
2022-09-07T05:01:37.584Z,23.80
2022-09-07T05:04:05.094Z,23.80
2022-09-07T05:06:33.539Z,23.80
2022-09-07T05:09:00.506Z,23.80
2022-09-07T05:11:29.743Z,23.70
2022-09-07T05:13:58.699Z,23.70
2022-09-07T05:16:27.065Z,23.60
2022-09-07T05:18:59.336Z,23.60
2022-09-07T05:21:28.604Z,23.70
2022-09-07T05:23:57.292Z,23.60
2022-09-07T05:26:27.195Z,23.60
2022-09-07T05:31:41.884Z,23.60
2022-09-07T05:36:56.474Z,23.60
2022-09-07T05:39:23.637Z,23.60
2022-09-07T05:41:50.532Z,23.60
2022-09-07T05:47:04.400Z,23.60
2022-09-07T05:49:32.440Z,23.60
2022-09-07T05:51:59.347Z,23.60
2022-09-07T05:54:26.643Z,23.60
2022-09-07T05:56:53.675Z,23.70
2022-09-07T05:59:20.721Z,23.60
2022-09-07T06:01:47.638Z,23.60
2022-09-07T06:04:14.635Z,23.60
2022-09-07T06:06:41.531Z,23.60
2022-09-07T06:09:11.499Z,23.60
2022-09-07T06:11:39.024Z,23.60
2022-09-07T06:14:05.964Z,23.60
2022-09-07T06:16:35.034Z,23.60
2022-09-07T06:19:06.596Z,23.60
2022-09-07T06:21:37.600Z,23.60
2022-09-07T06:24:06.147Z,23.60
2022-09-07T06:26:33.479Z,23.60
2022-09-07T06:29:02.332Z,23.60
2022-09-07T06:31:29.994Z,23.60
2022-09-07T06:33:57.406Z,23.60
2022-09-07T06:36:27.758Z,23.60
2022-09-07T06:38:56.445Z,23.60
2022-09-07T06:44:18.650Z,23.60
2022-09-07T06:49:32.886Z,23.60
2022-09-07T06:51:59.769Z,23.60
2022-09-07T06:57:13.948Z,23.70
2022-09-07T06:59:40.861Z,23.70
2022-09-07T07:02:10.243Z,23.70
2022-09-07T07:04:40.885Z,23.70
2022-09-07T07:07:12.987Z,23.70
2022-09-07T07:09:40.237Z,23.80
2022-09-07T07:12:07.392Z,23.70
2022-09-07T07:14:37.363Z,23.70
2022-09-07T07:17:06.849Z,23.70
2022-09-07T07:19:33.769Z,23.80
2022-09-07T07:24:47.593Z,23.80
2022-09-07T07:27:14.533Z,23.80
2022-09-07T07:29:41.452Z,23.80
2022-09-07T07:32:08.354Z,23.80
2022-09-07T07:34:35.272Z,23.90
2022-09-07T07:37:02.227Z,23.90
2022-09-07T07:42:16.173Z,23.90
2022-09-07T07:44:43.000Z,23.90
2022-09-07T07:47:10.447Z,24.00
2022-09-07T07:49:37.348Z,24.00
2022-09-07T07:54:53.082Z,24.00
2022-09-07T07:57:20.102Z,24.00
2022-09-07T07:59:47.018Z,24.00
2022-09-07T08:02:16.956Z,24.10
2022-09-07T08:04:44.267Z,24.10
2022-09-07T08:07:15.190Z,24.10
2022-09-07T08:09:44.544Z,24.20
2022-09-07T08:12:13.457Z,24.20
2022-09-07T08:14:41.688Z,24.20
2022-09-07T08:17:14.250Z,24.30
2022-09-07T08:19:41.788Z,24.30
2022-09-07T08:22:10.844Z,24.40
2022-09-07T08:24:37.889Z,24.40
2022-09-07T08:27:04.836Z,24.40
2022-09-07T08:29:35.027Z,24.40
2022-09-07T08:32:06.527Z,24.50
2022-09-07T08:34:36.035Z,24.50
2022-09-07T08:37:03.247Z,24.60
2022-09-07T08:39:30.480Z,24.60
2022-09-07T08:42:03.360Z,24.60
2022-09-07T08:44:42.988Z,24.70
2022-09-07T08:47:25.651Z,24.70
2022-09-07T08:50:09.773Z,24.70
2022-09-07T08:52:46.027Z,24.70
2022-09-07T08:55:31.727Z,24.70
2022-09-07T08:58:47.570Z,24.70
2022-09-07T09:04:18.510Z,24.70
2022-09-07T09:07:23.014Z,24.70
2022-09-07T09:10:09.532Z,24.80
2022-09-07T09:13:03.321Z,24.80
2022-09-07T09:15:54.104Z,24.80
2022-09-07T09:18:32.648Z,24.80
2022-09-07T09:21:00.465Z,24.80
2022-09-07T09:23:55.505Z,24.80
2022-09-07T09:26:27.476Z,24.80
2022-09-07T09:28:55.181Z,24.80
2022-09-07T09:31:26.527Z,24.70
2022-09-07T09:34:18.065Z,24.80
2022-09-07T09:36:48.488Z,24.90
2022-09-07T09:39:35.349Z,24.80
2022-09-07T09:42:15.937Z,24.90
2022-09-07T09:44:44.093Z,24.90
2022-09-07T09:47:32.397Z,24.80
2022-09-07T09:50:04.652Z,24.90
2022-09-07T09:52:45.137Z,24.80
2022-09-07T09:55:36.121Z,24.90
2022-09-07T10:01:24.030Z,24.90
2022-09-07T10:06:22.329Z,24.90
2022-09-07T10:08:59.478Z,24.90
2022-09-07T10:12:08.695Z,24.90
2022-09-07T10:14:43.294Z,25.00
2022-09-07T10:17:32.897Z,24.90
2022-09-07T10:20:22.977Z,25.00
2022-09-07T10:22:52.625Z,25.00
2022-09-07T10:25:34.064Z,24.90
2022-09-07T10:28:02.461Z,25.00
2022-09-07T10:30:33.207Z,25.00
2022-09-07T10:33:17.969Z,25.00
2022-09-07T10:35:53.699Z,25.00
2022-09-07T10:38:24.988Z,25.00
2022-09-07T10:40:58.351Z,25.00
2022-09-07T10:43:37.047Z,25.00
2022-09-07T10:49:17.460Z,25.00
2022-09-07T10:51:56.790Z,25.10
2022-09-07T10:54:41.996Z,25.10
2022-09-07T10:57:29.696Z,25.10
2022-09-07T11:00:09.864Z,25.10
2022-09-07T11:05:47.226Z,25.10
2022-09-07T11:12:04.183Z,25.10
2022-09-07T11:14:44.058Z,25.10
2022-09-07T11:17:18.400Z,25.10
2022-09-07T11:19:52.796Z,25.10
2022-09-07T11:22:28.575Z,25.10
2022-09-07T11:25:30.025Z,25.10
2022-09-07T11:28:12.899Z,25.10
2022-09-07T11:30:50.015Z,25.10
2022-09-07T11:33:27.278Z,25.20
2022-09-07T11:36:02.327Z,25.20
2022-09-07T11:38:29.384Z,25.20
2022-09-07T11:41:19.324Z,25.20
2022-09-07T11:43:55.738Z,25.20
2022-09-07T11:46:37.633Z,25.20
2022-09-07T11:49:12.301Z,25.20
2022-09-07T11:52:06.445Z,25.20
2022-09-07T11:54:43.643Z,25.20
2022-09-07T11:57:16.101Z,25.20
2022-09-07T12:00:01.717Z,25.20
2022-09-07T12:02:59.804Z,25.20
2022-09-07T12:05:44.616Z,25.20
2022-09-07T12:08:21.669Z,25.20
2022-09-07T12:11:02.382Z,25.20
2022-09-07T12:14:01.355Z,25.30
2022-09-07T12:16:51.314Z,25.20
2022-09-07T12:19:24.776Z,25.20
2022-09-07T12:21:51.691Z,25.20
2022-09-07T12:24:37.102Z,25.20
2022-09-07T12:27:05.396Z,25.30
2022-09-07T12:29:32.745Z,25.20
2022-09-07T12:34:53.430Z,25.20
2022-09-07T12:37:40.743Z,25.20
2022-09-07T12:40:29.711Z,25.30
2022-09-07T12:43:15.169Z,25.30
2022-09-07T12:45:42.396Z,25.30
2022-09-07T12:48:15.434Z,25.20
2022-09-07T12:51:06.973Z,25.20
2022-09-07T12:53:57.445Z,25.30
2022-09-07T12:56:31.124Z,25.30
2022-09-07T12:59:19.815Z,25.30
2022-09-07T13:02:34.747Z,25.30
2022-09-07T13:05:29.313Z,25.30
2022-09-07T13:08:11.386Z,25.30
2022-09-07T13:10:42.819Z,25.30
2022-09-07T13:13:16.116Z,25.20
2022-09-07T13:16:05.842Z,25.30
2022-09-07T13:18:36.059Z,25.20
2022-09-07T13:21:08.950Z,25.30
2022-09-07T13:23:48.936Z,25.30
2022-09-07T13:26:53.592Z,25.30
2022-09-07T13:29:44.988Z,25.40
2022-09-07T13:32:19.409Z,25.30
2022-09-07T13:34:55.484Z,25.30
2022-09-07T13:37:24.994Z,25.30
2022-09-07T13:39:55.156Z,25.30
2022-09-07T13:42:32.487Z,25.30
2022-09-07T13:45:25.850Z,25.40
2022-09-07T13:48:27.854Z,25.40
2022-09-07T13:51:12.551Z,25.40
2022-09-07T13:54:01.563Z,25.40
2022-09-07T13:56:35.835Z,25.30
2022-09-07T13:59:21.059Z,25.40
2022-09-07T14:01:49.225Z,25.40
2022-09-07T14:04:41.953Z,25.40
2022-09-07T14:07:19.632Z,25.40
2022-09-07T14:09:48.985Z,25.40
2022-09-07T14:12:20.140Z,25.40
2022-09-07T14:15:09.165Z,25.40
2022-09-07T14:17:36.626Z,25.50
2022-09-07T14:20:04.117Z,25.40
2022-09-07T14:22:35.415Z,25.40
2022-09-07T14:25:06.047Z,25.40
2022-09-07T14:27:41.230Z,25.40
2022-09-07T14:30:26.358Z,25.40
2022-09-07T14:33:06.131Z,25.40
2022-09-07T14:35:36.812Z,25.40
2022-09-07T14:39:04.003Z,25.40
2022-09-07T14:41:10.299Z,25.40
2022-09-07T14:43:40.941Z,25.40
2022-09-07T14:46:24.651Z,25.40
2022-09-07T14:48:56.880Z,25.50
2022-09-07T14:51:36.144Z,25.40
2022-09-07T14:54:07.830Z,25.40
2022-09-07T14:56:37.635Z,25.40
2022-09-07T14:59:35.420Z,25.40
2022-09-07T15:02:18.449Z,25.40
2022-09-07T15:05:16.394Z,25.40
2022-09-07T15:07:50.388Z,25.50
2022-09-07T15:10:23.876Z,25.40
2022-09-07T15:12:56.564Z,25.40
2022-09-07T15:15:29.866Z,25.40
2022-09-07T15:18:05.903Z,25.50
2022-09-07T15:20:43.064Z,25.40
2022-09-07T15:23:15.447Z,25.50
2022-09-07T15:25:49.872Z,25.40
2022-09-07T15:34:03.265Z,25.30
2022-09-07T15:36:31.946Z,25.40
2022-09-07T15:38:59.957Z,25.40
2022-09-07T15:41:27.780Z,25.40
2022-09-07T15:43:56.619Z,25.40
2022-09-07T15:46:25.023Z,25.30
2022-09-07T15:48:56.221Z,25.40
2022-09-07T15:54:13.558Z,25.40
2022-09-07T15:56:42.419Z,25.40
2022-09-07T15:59:10.756Z,25.50
2022-09-07T16:01:55.308Z,25.40
2022-09-07T16:04:24.168Z,25.40
2022-09-07T16:06:51.185Z,25.40
2022-09-07T16:09:21.771Z,25.40
2022-09-07T16:11:50.200Z,25.40
2022-09-07T16:14:17.991Z,25.40
2022-09-07T16:19:34.991Z,25.50
2022-09-07T16:22:03.208Z,25.50
2022-09-07T16:24:30.435Z,25.40
2022-09-07T16:26:57.366Z,25.40
2022-09-07T16:29:24.712Z,25.50
2022-09-07T16:34:40.265Z,25.40
2022-09-07T16:37:07.292Z,25.40
2022-09-07T16:39:34.727Z,25.50
2022-09-07T16:42:01.583Z,25.40
2022-09-07T16:44:28.574Z,25.40
2022-09-07T16:46:55.380Z,25.40
2022-09-07T16:49:22.841Z,25.40
2022-09-07T16:51:49.837Z,25.40
2022-09-07T16:54:17.644Z,25.40
2022-09-07T16:56:44.639Z,25.40
2022-09-07T16:59:16.569Z,25.40
2022-09-07T17:01:43.935Z,25.40
2022-09-07T17:04:11.747Z,25.40
2022-09-07T17:06:39.744Z,25.40
2022-09-07T17:09:07.411Z,25.40
2022-09-07T17:11:36.288Z,25.40
2022-09-07T17:14:06.386Z,25.40
2022-09-07T17:16:39.832Z,25.30
2022-09-07T17:21:57.691Z,25.40
2022-09-07T17:24:24.648Z,25.40
2022-09-07T17:26:51.708Z,25.40
2022-09-07T17:29:18.595Z,25.40
2022-09-07T17:34:32.495Z,25.30
2022-09-07T17:37:01.015Z,25.30
2022-09-07T17:39:28.699Z,25.30
2022-09-07T17:41:55.694Z,25.30
2022-09-07T17:44:23.524Z,25.30
2022-09-07T17:46:50.920Z,25.30
2022-09-07T17:49:18.259Z,25.30
2022-09-07T17:51:46.012Z,25.20
2022-09-07T17:54:17.935Z,25.20
2022-09-07T17:56:45.732Z,25.20
2022-09-07T18:02:00.983Z,25.20
2022-09-07T18:04:28.507Z,25.20
2022-09-07T18:06:55.777Z,25.20
2022-09-07T18:09:22.795Z,25.20
2022-09-07T18:11:50.698Z,25.20
2022-09-07T18:14:18.706Z,25.30
2022-09-07T18:16:46.946Z,25.30
2022-09-07T18:19:14.448Z,25.30
2022-09-07T18:21:43.065Z,25.40
2022-09-07T18:24:17.374Z,25.30
2022-09-07T18:26:50.178Z,25.40
2022-09-07T18:29:37.435Z,25.30
2022-09-07T18:32:09.466Z,25.30
2022-09-07T18:34:38.495Z,25.30
2022-09-07T18:37:06.098Z,25.30
2022-09-07T18:39:35.197Z,25.30
2022-09-07T18:42:02.213Z,25.20
2022-09-07T18:47:23.405Z,25.20
2022-09-07T18:49:55.014Z,25.20
2022-09-07T18:55:10.232Z,25.20
2022-09-07T18:57:37.834Z,25.20
2022-09-07T19:00:07.756Z,25.10
2022-09-07T19:02:35.929Z,25.10
2022-09-07T19:07:50.082Z,25.10
2022-09-07T19:10:17.803Z,25.10
2022-09-07T19:12:46.703Z,25.00
2022-09-07T19:15:14.555Z,25.00
2022-09-07T19:17:41.418Z,25.00
2022-09-07T19:20:08.844Z,25.00
2022-09-07T19:22:35.947Z,25.00
2022-09-07T19:25:02.777Z,25.00
2022-09-07T19:27:32.801Z,25.00
2022-09-07T19:29:59.731Z,25.10
2022-09-07T19:32:26.903Z,25.10
2022-09-07T19:34:54.712Z,25.10
2022-09-07T19:37:25.908Z,25.10
2022-09-07T19:39:56.068Z,25.10
2022-09-07T19:42:24.404Z,25.10
2022-09-07T19:44:52.334Z,25.10
2022-09-07T19:47:20.157Z,25.10
2022-09-07T19:49:47.014Z,25.00
2022-09-07T19:52:14.048Z,25.00
2022-09-07T19:54:41.008Z,25.00
2022-09-07T19:57:07.985Z,25.00
2022-09-07T19:59:34.961Z,25.00
2022-09-07T20:02:01.847Z,25.00
2022-09-07T20:04:28.965Z,25.00
2022-09-07T20:06:56.364Z,25.00
2022-09-07T20:09:23.277Z,24.90
2022-09-07T20:11:50.268Z,25.00
2022-09-07T20:14:17.403Z,25.00
2022-09-07T20:16:44.891Z,24.90
2022-09-07T20:19:14.777Z,24.90
2022-09-07T20:21:42.462Z,24.90
2022-09-07T20:24:11.934Z,24.90
2022-09-07T20:26:39.184Z,24.90
2022-09-07T20:29:26.062Z,24.90
2022-09-07T20:31:53.952Z,24.80
2022-09-07T20:34:21.387Z,24.80
2022-09-07T20:36:51.980Z,24.90
2022-09-07T20:39:19.195Z,24.80
2022-09-07T20:41:46.221Z,24.80
2022-09-07T20:44:13.519Z,24.70
2022-09-07T20:46:40.421Z,24.70
2022-09-07T20:49:07.819Z,24.80
2022-09-07T20:51:35.421Z,24.80
2022-09-07T20:54:02.316Z,24.80
2022-09-07T20:56:30.582Z,24.70
2022-09-07T20:59:02.205Z,24.70
2022-09-07T21:01:31.273Z,24.70
2022-09-07T21:04:00.489Z,24.70
2022-09-07T21:06:28.875Z,24.70
2022-09-07T21:08:59.701Z,24.70
2022-09-07T21:11:31.138Z,24.70
2022-09-07T21:14:11.453Z,24.70
2022-09-07T21:16:39.169Z,24.70
2022-09-07T21:19:08.655Z,24.60
2022-09-07T21:21:39.306Z,24.70
2022-09-07T21:24:12.999Z,24.70
2022-09-07T21:26:40.031Z,24.70
2022-09-07T21:29:10.591Z,24.60
2022-09-07T21:31:37.587Z,24.60
2022-09-07T21:34:04.678Z,24.60
2022-09-07T21:36:31.810Z,24.60
2022-09-07T21:38:58.647Z,24.60
2022-09-07T21:41:25.892Z,24.50
2022-09-07T21:43:58.411Z,24.40
2022-09-07T21:46:26.626Z,24.50
2022-09-07T21:48:55.544Z,24.40
2022-09-07T21:51:24.548Z,24.40
2022-09-07T21:53:53.495Z,24.40
2022-09-07T21:56:22.212Z,24.40
2022-09-07T21:58:52.860Z,24.40
2022-09-07T22:01:20.121Z,24.40
2022-09-07T22:03:52.231Z,24.40
2022-09-07T22:06:19.183Z,24.30
2022-09-07T22:08:46.071Z,24.40
2022-09-07T22:11:18.656Z,24.40
2022-09-07T22:13:45.807Z,24.40
2022-09-07T22:16:13.628Z,24.40
2022-09-07T22:18:44.203Z,24.40
2022-09-07T22:21:13.684Z,24.40
2022-09-07T22:23:45.877Z,24.30
2022-09-07T22:26:14.311Z,24.30
2022-09-07T22:28:41.371Z,24.30
2022-09-07T22:31:17.018Z,24.30
2022-09-07T22:33:45.505Z,24.40
2022-09-07T22:36:16.975Z,24.30
2022-09-07T22:38:45.953Z,24.30
2022-09-07T22:41:18.943Z,24.40
2022-09-07T22:43:47.057Z,24.40
2022-09-07T22:46:14.864Z,24.40
2022-09-07T22:48:41.987Z,24.40
2022-09-07T22:51:09.552Z,24.40
2022-09-07T22:53:38.552Z,24.40
2022-09-07T22:56:13.994Z,24.40
2022-09-07T22:58:46.772Z,24.40
2022-09-07T23:01:13.991Z,24.40
2022-09-07T23:03:40.975Z,24.40
2022-09-07T23:06:08.759Z,24.40
2022-09-07T23:08:35.582Z,24.30
2022-09-07T23:11:05.111Z,24.30
2022-09-07T23:13:33.170Z,24.30
2022-09-07T23:16:08.276Z,24.20
2022-09-07T23:18:36.136Z,24.30
2022-09-07T23:21:03.032Z,24.20
2022-09-07T23:23:30.102Z,24.20
2022-09-07T23:25:57.026Z,24.20
2022-09-07T23:28:23.808Z,24.20
2022-09-07T23:30:51.523Z,24.20
2022-09-07T23:33:18.384Z,24.20
2022-09-07T23:35:59.670Z,24.10
2022-09-07T23:38:27.263Z,24.20
2022-09-07T23:40:55.137Z,24.20
2022-09-07T23:43:22.960Z,24.10
2022-09-07T23:45:50.038Z,24.10
2022-09-07T23:48:16.920Z,24.00
2022-09-07T23:50:45.068Z,24.10
2022-09-07T23:53:12.718Z,24.10
2022-09-07T23:55:40.346Z,24.00
2022-09-07T23:58:08.504Z,24.10
